Aérodrome :
LOGIN :

S'inscrire | Disclaimer

   EN    FR    IT 

 










Légende :    VFR   VFR Marginal   IFR   IFR Intensif   IFR Très Intensif
Visi : 
Plafond : 
>= 8 km
>= 3000ft
5 à 8 km
1000 à 3000 ft
1500m à 5 km
500 à 1000 ft
800 à 1500m
200 à 500 ft
< 800m
< 200 ft
Symboles :   Orages  Brouillard  Fortes neiges  Fortes précipitations  Vent > 20 kt
SIGMETs :   Divers  Orages  Givrage  Turbulence  Onde Orograph.  Cendres Volcan.







- Altitude de l'aérodrome : 92 ft


EGXZ - RAP Topcliffe

DERNIER METAR :
  • 270654Z 17001KT 9999 FEW004 11/09 Q1033 BLU

METARs EXPIRÉS :
  • 270550Z AUTO 00000KT 9999 NCD 08/08 Q1033
  • 270450Z AUTO 00000KT 0350 FG FEW003/// 04/04 Q1033

TAF TAF EGXZ
Valide du 27 à 07h jusqu'au 27 à 15h UTC


270719Z 2707/2715 14005KT CAVOK
PROB30
TEMPO 2707/2708 SCT006
Pas de NOTAMs connus pour ce terrain.
1 SIGMET publié pour la FIR London (EGTT) :
 
Turbulence forte
EGTT SIGMET 06 VALID 270800/271100 EGRR
EGTT LONDON FIR SEV TURB FCST S OF LINE N5035 W00800 - N5109 E00200 SFC/FL030 STNR WKN=



MET'MAP, la Météo Aéronautique d'un coup d'oeil ! - Copyright ORBIFLY Décembre 2007 - Disclaimer

ORBIFLY MET'MAP TEAM :

Programmation & Développement : Alexandra Zaïnal
Conception & Développement : Baudouin d'Aumeries
Co-Programmation & Développement : Marc-Olivier Méhu
Soutien technique & logistique : Manuel Goepfert

Contact : metmap@orbifly.com




SOURCES & CREDITS :

   NOAA